sensor_id;sensor_type;location;lat;lon;timestamp;P1;durP1;ratioP1;P2;durP2;ratioP2
76867;SDS011;66168;45.478;11.060;2023-12-22T00:02:22;17.20;;;10.80;;
76867;SDS011;66168;45.478;11.060;2023-12-22T00:04:50;15.50;;;10.40;;
76867;SDS011;66168;45.478;11.060;2023-12-22T00:07:17;11.80;;;9.00;;
76867;SDS011;66168;45.478;11.060;2023-12-22T00:09:47;15.00;;;10.60;;
76867;SDS011;66168;45.478;11.060;2023-12-22T00:12:14;19.20;;;12.10;;
76867;SDS011;66168;45.478;11.060;2023-12-22T00:14:41;19.00;;;11.80;;
76867;SDS011;66168;45.478;11.060;2023-12-22T00:17:08;16.50;;;10.90;;
76867;SDS011;66168;45.478;11.060;2023-12-22T00:19:35;13.20;;;7.80;;
76867;SDS011;66168;45.478;11.060;2023-12-22T00:22:02;15.30;;;9.10;;
76867;SDS011;66168;45.478;11.060;2023-12-22T00:24:30;16.10;;;9.80;;
76867;SDS011;66168;45.478;11.060;2023-12-22T00:26:58;16.00;;;9.40;;
76867;SDS011;66168;45.478;11.060;2023-12-22T00:29:24;16.10;;;9.50;;
76867;SDS011;66168;45.478;11.060;2023-12-22T00:31:51;16.10;;;10.30;;
76867;SDS011;66168;45.478;11.060;2023-12-22T00:34:18;17.80;;;9.30;;
76867;SDS011;66168;45.478;11.060;2023-12-22T00:36:46;11.10;;;7.50;;
76867;SDS011;66168;45.478;11.060;2023-12-22T00:39:13;15.90;;;10.70;;
76867;SDS011;66168;45.478;11.060;2023-12-22T00:41:40;18.50;;;9.80;;
76867;SDS011;66168;45.478;11.060;2023-12-22T00:44:07;12.60;;;8.30;;
76867;SDS011;66168;45.478;11.060;2023-12-22T00:46:34;11.90;;;8.30;;
76867;SDS011;66168;45.478;11.060;2023-12-22T00:49:01;13.10;;;8.20;;
76867;SDS011;66168;45.478;11.060;2023-12-22T00:51:28;14.90;;;9.00;;
76867;SDS011;66168;45.478;11.060;2023-12-22T00:53:55;13.00;;;8.30;;
76867;SDS011;66168;45.478;11.060;2023-12-22T00:56:21;10.00;;;7.00;;
76867;SDS011;66168;45.478;11.060;2023-12-22T00:58:48;12.70;;;8.00;;
76867;SDS011;66168;45.478;11.060;2023-12-22T01:01:27;20.20;;;11.60;;
76867;SDS011;66168;45.478;11.060;2023-12-22T01:03:54;18.00;;;10.40;;
76867;SDS011;66168;45.478;11.060;2023-12-22T01:06:21;12.90;;;7.60;;
76867;SDS011;66168;45.478;11.060;2023-12-22T01:08:53;13.60;;;9.00;;
76867;SDS011;66168;45.478;11.060;2023-12-22T01:11:19;13.00;;;9.00;;
76867;SDS011;66168;45.478;11.060;2023-12-22T01:13:46;15.90;;;8.70;;
76867;SDS011;66168;45.478;11.060;2023-12-22T01:16:14;13.00;;;8.70;;
76867;SDS011;66168;45.478;11.060;2023-12-22T01:18:42;12.40;;;7.70;;
76867;SDS011;66168;45.478;11.060;2023-12-22T01:21:11;18.30;;;10.00;;
76867;SDS011;66168;45.478;11.060;2023-12-22T01:23:38;15.70;;;8.90;;
76867;SDS011;66168;45.478;11.060;2023-12-22T01:26:05;12.30;;;8.10;;
76867;SDS011;66168;45.478;11.060;2023-12-22T01:28:33;12.30;;;8.10;;
76867;SDS011;66168;45.478;11.060;2023-12-22T01:31:00;16.70;;;9.80;;
76867;SDS011;66168;45.478;11.060;2023-12-22T01:33:27;10.90;;;7.50;;
76867;SDS011;66168;45.478;11.060;2023-12-22T01:35:56;13.50;;;7.50;;
76867;SDS011;66168;45.478;11.060;2023-12-22T01:38:23;11.10;;;6.70;;
76867;SDS011;66168;45.478;11.060;2023-12-22T01:40:50;6.30;;;4.10;;
76867;SDS011;66168;45.478;11.060;2023-12-22T01:43:17;10.40;;;7.00;;
76867;SDS011;66168;45.478;11.060;2023-12-22T01:45:49;11.80;;;6.40;;
76867;SDS011;66168;45.478;11.060;2023-12-22T01:48:23;10.10;;;6.50;;
76867;SDS011;66168;45.478;11.060;2023-12-22T01:50:52;8.70;;;6.60;;
76867;SDS011;66168;45.478;11.060;2023-12-22T01:53:21;7.50;;;5.20;;
76867;SDS011;66168;45.478;11.060;2023-12-22T01:55:52;5.00;;;2.90;;
76867;SDS011;66168;45.478;11.060;2023-12-22T01:58:22;11.60;;;6.70;;
76867;SDS011;66168;45.478;11.060;2023-12-22T02:00:50;10.40;;;5.80;;
76867;SDS011;66168;45.478;11.060;2023-12-22T02:03:19;5.30;;;3.70;;
76867;SDS011;66168;45.478;11.060;2023-12-22T02:05:46;9.00;;;6.40;;
76867;SDS011;66168;45.478;11.060;2023-12-22T02:08:15;12.30;;;8.00;;
76867;SDS011;66168;45.478;11.060;2023-12-22T02:10:44;12.50;;;6.70;;
76867;SDS011;66168;45.478;11.060;2023-12-22T02:13:11;12.20;;;8.00;;
76867;SDS011;66168;45.478;11.060;2023-12-22T02:15:39;12.20;;;8.30;;
76867;SDS011;66168;45.478;11.060;2023-12-22T02:18:12;8.90;;;6.30;;
76867;SDS011;66168;45.478;11.060;2023-12-22T02:20:46;13.70;;;9.20;;
76867;SDS011;66168;45.478;11.060;2023-12-22T02:23:20;10.00;;;7.20;;
76867;SDS011;66168;45.478;11.060;2023-12-22T02:25:47;13.30;;;7.20;;
76867;SDS011;66168;45.478;11.060;2023-12-22T02:28:22;9.90;;;6.80;;
76867;SDS011;66168;45.478;11.060;2023-12-22T02:30:58;12.80;;;8.40;;
76867;SDS011;66168;45.478;11.060;2023-12-22T02:33:31;11.30;;;7.60;;
76867;SDS011;66168;45.478;11.060;2023-12-22T02:36:01;13.00;;;7.30;;
76867;SDS011;66168;45.478;11.060;2023-12-22T02:40:58;12.20;;;6.50;;
76867;SDS011;66168;45.478;11.060;2023-12-22T02:43:26;13.50;;;8.60;;
76867;SDS011;66168;45.478;11.060;2023-12-22T02:45:54;13.40;;;8.70;;
76867;SDS011;66168;45.478;11.060;2023-12-22T02:48:21;7.80;;;5.00;;
76867;SDS011;66168;45.478;11.060;2023-12-22T02:50:48;9.20;;;6.90;;
76867;SDS011;66168;45.478;11.060;2023-12-22T02:53:15;12.10;;;7.50;;
76867;SDS011;66168;45.478;11.060;2023-12-22T02:55:42;14.60;;;8.60;;
76867;SDS011;66168;45.478;11.060;2023-12-22T02:58:09;8.20;;;5.20;;
76867;SDS011;66168;45.478;11.060;2023-12-22T03:00:37;20.30;;;11.60;;
76867;SDS011;66168;45.478;11.060;2023-12-22T03:03:04;25.70;;;15.20;;
76867;SDS011;66168;45.478;11.060;2023-12-22T03:05:31;26.60;;;15.30;;
76867;SDS011;66168;45.478;11.060;2023-12-22T03:07:58;14.00;;;9.50;;
76867;SDS011;66168;45.478;11.060;2023-12-22T03:10:25;13.10;;;8.60;;
76867;SDS011;66168;45.478;11.060;2023-12-22T03:12:52;14.40;;;8.30;;
76867;SDS011;66168;45.478;11.060;2023-12-22T03:15:19;15.60;;;8.90;;
76867;SDS011;66168;45.478;11.060;2023-12-22T03:17:46;14.60;;;8.60;;
76867;SDS011;66168;45.478;11.060;2023-12-22T03:20:14;15.20;;;9.90;;
76867;SDS011;66168;45.478;11.060;2023-12-22T03:22:40;25.30;;;14.70;;
76867;SDS011;66168;45.478;11.060;2023-12-22T03:25:07;19.40;;;12.70;;
76867;SDS011;66168;45.478;11.060;2023-12-22T03:27:36;17.60;;;11.50;;
76867;SDS011;66168;45.478;11.060;2023-12-22T03:30:03;24.30;;;13.30;;
76867;SDS011;66168;45.478;11.060;2023-12-22T03:32:31;17.30;;;9.60;;
76867;SDS011;66168;45.478;11.060;2023-12-22T03:34:58;16.00;;;8.90;;
76867;SDS011;66168;45.478;11.060;2023-12-22T03:37:25;12.00;;;7.30;;
76867;SDS011;66168;45.478;11.060;2023-12-22T03:39:52;10.10;;;6.20;;
76867;SDS011;66168;45.478;11.060;2023-12-22T03:42:19;12.70;;;6.30;;
76867;SDS011;66168;45.478;11.060;2023-12-22T03:44:46;7.40;;;5.30;;
76867;SDS011;66168;45.478;11.060;2023-12-22T03:47:13;5.30;;;3.10;;
76867;SDS011;66168;45.478;11.060;2023-12-22T03:49:41;1.90;;;1.60;;
76867;SDS011;66168;45.478;11.060;2023-12-22T03:52:08;2.80;;;1.50;;
76867;SDS011;66168;45.478;11.060;2023-12-22T03:54:35;2.00;;;1.30;;
76867;SDS011;66168;45.478;11.060;2023-12-22T03:57:03;1.40;;;0.90;;
76867;SDS011;66168;45.478;11.060;2023-12-22T03:59:30;1.00;;;0.80;;
76867;SDS011;66168;45.478;11.060;2023-12-22T04:01:56;1.50;;;0.90;;
76867;SDS011;66168;45.478;11.060;2023-12-22T04:04:28;1.20;;;0.60;;
76867;SDS011;66168;45.478;11.060;2023-12-22T04:06:55;0.80;;;0.80;;
76867;SDS011;66168;45.478;11.060;2023-12-22T04:09:22;0.50;;;0.50;;
76867;SDS011;66168;45.478;11.060;2023-12-22T04:11:49;1.30;;;0.80;;
76867;SDS011;66168;45.478;11.060;2023-12-22T04:14:16;0.60;;;0.50;;
76867;SDS011;66168;45.478;11.060;2023-12-22T04:16:44;0.50;;;0.50;;
76867;SDS011;66168;45.478;11.060;2023-12-22T04:19:12;0.80;;;0.80;;
76867;SDS011;66168;45.478;11.060;2023-12-22T04:21:39;0.70;;;0.60;;
76867;SDS011;66168;45.478;11.060;2023-12-22T04:24:06;0.50;;;0.50;;
76867;SDS011;66168;45.478;11.060;2023-12-22T04:26:33;0.50;;;0.40;;
76867;SDS011;66168;45.478;11.060;2023-12-22T04:29:00;0.60;;;0.60;;
76867;SDS011;66168;45.478;11.060;2023-12-22T04:31:27;0.60;;;0.60;;
76867;SDS011;66168;45.478;11.060;2023-12-22T04:33:54;1.30;;;1.20;;
76867;SDS011;66168;45.478;11.060;2023-12-22T04:36:22;6.70;;;4.60;;
76867;SDS011;66168;45.478;11.060;2023-12-22T04:38:49;5.20;;;3.60;;
76867;SDS011;66168;45.478;11.060;2023-12-22T04:41:16;5.20;;;2.90;;
76867;SDS011;66168;45.478;11.060;2023-12-22T04:43:43;4.10;;;2.90;;
76867;SDS011;66168;45.478;11.060;2023-12-22T04:46:10;1.80;;;1.50;;
76867;SDS011;66168;45.478;11.060;2023-12-22T04:48:37;1.00;;;0.90;;
76867;SDS011;66168;45.478;11.060;2023-12-22T04:51:04;1.20;;;1.10;;
76867;SDS011;66168;45.478;11.060;2023-12-22T04:53:31;1.30;;;1.10;;
76867;SDS011;66168;45.478;11.060;2023-12-22T04:55:58;2.10;;;1.90;;
76867;SDS011;66168;45.478;11.060;2023-12-22T04:58:25;3.10;;;2.10;;
76867;SDS011;66168;45.478;11.060;2023-12-22T05:00:52;1.90;;;1.70;;
76867;SDS011;66168;45.478;11.060;2023-12-22T05:03:19;0.80;;;0.80;;
76867;SDS011;66168;45.478;11.060;2023-12-22T05:05:46;0.40;;;0.40;;
76867;SDS011;66168;45.478;11.060;2023-12-22T05:08:13;0.70;;;0.30;;
76867;SDS011;66168;45.478;11.060;2023-12-22T05:10:41;17.00;;;11.80;;
76867;SDS011;66168;45.478;11.060;2023-12-22T05:13:08;17.20;;;11.80;;
76867;SDS011;66168;45.478;11.060;2023-12-22T05:15:35;16.90;;;12.70;;
76867;SDS011;66168;45.478;11.060;2023-12-22T05:18:02;19.50;;;14.30;;
76867;SDS011;66168;45.478;11.060;2023-12-22T05:20:29;16.10;;;11.20;;
76867;SDS011;66168;45.478;11.060;2023-12-22T05:22:56;21.10;;;14.10;;
76867;SDS011;66168;45.478;11.060;2023-12-22T05:25:24;19.40;;;14.20;;
76867;SDS011;66168;45.478;11.060;2023-12-22T05:27:51;15.10;;;9.40;;
76867;SDS011;66168;45.478;11.060;2023-12-22T05:30:18;14.60;;;10.20;;
76867;SDS011;66168;45.478;11.060;2023-12-22T05:32:45;11.60;;;8.40;;
76867;SDS011;66168;45.478;11.060;2023-12-22T05:35:12;17.70;;;12.00;;
76867;SDS011;66168;45.478;11.060;2023-12-22T05:37:39;21.10;;;12.80;;
76867;SDS011;66168;45.478;11.060;2023-12-22T05:40:07;20.50;;;13.40;;
76867;SDS011;66168;45.478;11.060;2023-12-22T05:42:34;17.90;;;12.70;;
76867;SDS011;66168;45.478;11.060;2023-12-22T05:45:01;19.90;;;13.40;;
76867;SDS011;66168;45.478;11.060;2023-12-22T05:47:28;18.30;;;11.80;;
76867;SDS011;66168;45.478;11.060;2023-12-22T05:49:55;20.90;;;14.00;;
76867;SDS011;66168;45.478;11.060;2023-12-22T05:52:23;28.20;;;17.70;;
76867;SDS011;66168;45.478;11.060;2023-12-22T05:54:50;25.00;;;15.60;;
76867;SDS011;66168;45.478;11.060;2023-12-22T05:57:17;12.30;;;8.90;;
76867;SDS011;66168;45.478;11.060;2023-12-22T05:59:44;15.80;;;11.00;;
76867;SDS011;66168;45.478;11.060;2023-12-22T06:02:11;18.30;;;12.20;;
76867;SDS011;66168;45.478;11.060;2023-12-22T06:04:40;18.40;;;12.60;;
76867;SDS011;66168;45.478;11.060;2023-12-22T06:07:07;16.50;;;10.40;;
76867;SDS011;66168;45.478;11.060;2023-12-22T06:09:34;16.00;;;10.40;;
76867;SDS011;66168;45.478;11.060;2023-12-22T06:12:01;12.60;;;9.20;;
76867;SDS011;66168;45.478;11.060;2023-12-22T06:14:28;13.60;;;9.70;;
76867;SDS011;66168;45.478;11.060;2023-12-22T06:16:55;17.70;;;9.10;;
76867;SDS011;66168;45.478;11.060;2023-12-22T06:19:24;10.30;;;7.50;;
76867;SDS011;66168;45.478;11.060;2023-12-22T06:21:55;11.60;;;7.30;;
76867;SDS011;66168;45.478;11.060;2023-12-22T06:24:21;8.20;;;5.60;;
76867;SDS011;66168;45.478;11.060;2023-12-22T06:26:48;3.50;;;3.10;;
76867;SDS011;66168;45.478;11.060;2023-12-22T06:29:15;3.80;;;2.60;;
76867;SDS011;66168;45.478;11.060;2023-12-22T06:31:42;3.30;;;2.20;;
76867;SDS011;66168;45.478;11.060;2023-12-22T06:34:09;3.70;;;2.50;;
76867;SDS011;66168;45.478;11.060;2023-12-22T06:36:36;6.10;;;3.20;;
76867;SDS011;66168;45.478;11.060;2023-12-22T06:39:03;7.10;;;5.30;;
76867;SDS011;66168;45.478;11.060;2023-12-22T06:41:30;8.20;;;6.30;;
76867;SDS011;66168;45.478;11.060;2023-12-22T06:43:57;10.10;;;6.50;;
76867;SDS011;66168;45.478;11.060;2023-12-22T06:46:29;7.10;;;5.70;;
76867;SDS011;66168;45.478;11.060;2023-12-22T06:48:57;11.30;;;6.20;;
76867;SDS011;66168;45.478;11.060;2023-12-22T06:51:28;8.40;;;6.10;;
76867;SDS011;66168;45.478;11.060;2023-12-22T06:53:57;11.10;;;6.00;;
76867;SDS011;66168;45.478;11.060;2023-12-22T06:56:29;8.00;;;5.00;;
76867;SDS011;66168;45.478;11.060;2023-12-22T06:58:57;8.70;;;5.70;;
76867;SDS011;66168;45.478;11.060;2023-12-22T07:01:26;9.10;;;5.80;;
76867;SDS011;66168;45.478;11.060;2023-12-22T07:03:55;9.60;;;6.90;;
76867;SDS011;66168;45.478;11.060;2023-12-22T07:06:22;9.30;;;6.20;;
76867;SDS011;66168;45.478;11.060;2023-12-22T07:08:57;7.20;;;5.40;;
76867;SDS011;66168;45.478;11.060;2023-12-22T07:11:50;8.80;;;6.40;;
76867;SDS011;66168;45.478;11.060;2023-12-22T07:14:19;8.80;;;5.70;;
76867;SDS011;66168;45.478;11.060;2023-12-22T07:16:47;9.10;;;6.00;;
76867;SDS011;66168;45.478;11.060;2023-12-22T07:19:14;5.60;;;4.80;;
76867;SDS011;66168;45.478;11.060;2023-12-22T07:21:41;7.30;;;4.90;;
76867;SDS011;66168;45.478;11.060;2023-12-22T07:24:12;5.00;;;3.90;;
76867;SDS011;66168;45.478;11.060;2023-12-22T07:26:41;4.50;;;3.80;;
76867;SDS011;66168;45.478;11.060;2023-12-22T07:29:11;5.80;;;4.00;;
76867;SDS011;66168;45.478;11.060;2023-12-22T07:31:38;5.20;;;4.00;;
76867;SDS011;66168;45.478;11.060;2023-12-22T07:34:05;4.20;;;2.50;;
76867;SDS011;66168;45.478;11.060;2023-12-22T07:36:35;5.20;;;3.70;;
76867;SDS011;66168;45.478;11.060;2023-12-22T07:41:43;1.30;;;1.20;;
76867;SDS011;66168;45.478;11.060;2023-12-22T07:44:10;4.50;;;3.10;;
76867;SDS011;66168;45.478;11.060;2023-12-22T07:46:37;6.40;;;4.30;;
76867;SDS011;66168;45.478;11.060;2023-12-22T07:49:03;7.00;;;4.10;;
76867;SDS011;66168;45.478;11.060;2023-12-22T07:51:30;5.70;;;4.90;;
76867;SDS011;66168;45.478;11.060;2023-12-22T07:54:00;4.80;;;3.90;;
76867;SDS011;66168;45.478;11.060;2023-12-22T07:56:33;5.80;;;3.70;;
76867;SDS011;66168;45.478;11.060;2023-12-22T07:59:02;7.80;;;3.90;;
76867;SDS011;66168;45.478;11.060;2023-12-22T08:01:52;7.30;;;4.80;;
76867;SDS011;66168;45.478;11.060;2023-12-22T08:04:19;8.00;;;4.40;;
76867;SDS011;66168;45.478;11.060;2023-12-22T08:06:45;6.60;;;3.50;;
76867;SDS011;66168;45.478;11.060;2023-12-22T08:09:13;5.40;;;3.10;;
76867;SDS011;66168;45.478;11.060;2023-12-22T08:11:42;3.40;;;3.00;;
76867;SDS011;66168;45.478;11.060;2023-12-22T08:14:13;3.40;;;3.00;;
76867;SDS011;66168;45.478;11.060;2023-12-22T08:16:40;3.40;;;2.90;;
76867;SDS011;66168;45.478;11.060;2023-12-22T08:19:07;3.00;;;2.50;;
76867;SDS011;66168;45.478;11.060;2023-12-22T08:21:34;4.80;;;3.60;;
76867;SDS011;66168;45.478;11.060;2023-12-22T08:24:11;5.90;;;4.40;;
76867;SDS011;66168;45.478;11.060;2023-12-22T08:26:48;4.90;;;3.60;;
76867;SDS011;66168;45.478;11.060;2023-12-22T08:29:22;6.60;;;4.20;;
76867;SDS011;66168;45.478;11.060;2023-12-22T08:31:49;7.80;;;4.80;;
76867;SDS011;66168;45.478;11.060;2023-12-22T08:34:16;5.90;;;4.20;;
76867;SDS011;66168;45.478;11.060;2023-12-22T08:36:43;6.00;;;4.60;;
76867;SDS011;66168;45.478;11.060;2023-12-22T08:39:11;6.30;;;4.10;;
76867;SDS011;66168;45.478;11.060;2023-12-22T08:41:39;6.50;;;4.20;;
76867;SDS011;66168;45.478;11.060;2023-12-22T08:44:06;6.60;;;4.30;;
76867;SDS011;66168;45.478;11.060;2023-12-22T08:46:34;6.50;;;4.10;;
76867;SDS011;66168;45.478;11.060;2023-12-22T08:49:02;8.30;;;3.80;;
76867;SDS011;66168;45.478;11.060;2023-12-22T08:51:30;5.10;;;3.60;;
76867;SDS011;66168;45.478;11.060;2023-12-22T08:53:58;4.30;;;3.40;;
76867;SDS011;66168;45.478;11.060;2023-12-22T08:56:25;4.40;;;3.20;;
76867;SDS011;66168;45.478;11.060;2023-12-22T08:58:53;6.30;;;3.40;;
76867;SDS011;66168;45.478;11.060;2023-12-22T09:01:22;7.40;;;3.30;;
76867;SDS011;66168;45.478;11.060;2023-12-22T09:03:49;4.80;;;2.90;;
76867;SDS011;66168;45.478;11.060;2023-12-22T09:06:17;4.90;;;3.20;;
76867;SDS011;66168;45.478;11.060;2023-12-22T09:08:45;3.80;;;2.80;;
76867;SDS011;66168;45.478;11.060;2023-12-22T09:11:13;4.30;;;2.70;;
76867;SDS011;66168;45.478;11.060;2023-12-22T09:13:43;5.30;;;2.70;;
76867;SDS011;66168;45.478;11.060;2023-12-22T09:16:10;2.70;;;2.40;;
76867;SDS011;66168;45.478;11.060;2023-12-22T09:18:37;3.60;;;2.10;;
76867;SDS011;66168;45.478;11.060;2023-12-22T09:21:04;3.60;;;2.50;;
76867;SDS011;66168;45.478;11.060;2023-12-22T09:23:31;6.60;;;2.10;;
76867;SDS011;66168;45.478;11.060;2023-12-22T09:25:58;3.80;;;2.50;;
76867;SDS011;66168;45.478;11.060;2023-12-22T09:28:25;3.50;;;2.50;;
76867;SDS011;66168;45.478;11.060;2023-12-22T09:30:52;3.10;;;2.50;;
76867;SDS011;66168;45.478;11.060;2023-12-22T09:33:19;3.50;;;2.20;;
76867;SDS011;66168;45.478;11.060;2023-12-22T09:35:49;3.20;;;2.40;;
76867;SDS011;66168;45.478;11.060;2023-12-22T09:38:17;5.60;;;2.50;;
76867;SDS011;66168;45.478;11.060;2023-12-22T09:40:44;8.60;;;4.20;;
76867;SDS011;66168;45.478;11.060;2023-12-22T09:43:11;4.50;;;2.20;;
76867;SDS011;66168;45.478;11.060;2023-12-22T09:45:42;3.30;;;2.40;;
76867;SDS011;66168;45.478;11.060;2023-12-22T09:48:09;3.50;;;2.30;;
76867;SDS011;66168;45.478;11.060;2023-12-22T09:50:45;4.10;;;2.30;;
76867;SDS011;66168;45.478;11.060;2023-12-22T09:53:13;2.30;;;1.90;;
76867;SDS011;66168;45.478;11.060;2023-12-22T09:55:44;4.80;;;2.70;;
76867;SDS011;66168;45.478;11.060;2023-12-22T09:58:16;3.90;;;2.10;;
76867;SDS011;66168;45.478;11.060;2023-12-22T10:00:44;4.10;;;2.30;;
76867;SDS011;66168;45.478;11.060;2023-12-22T10:03:12;3.00;;;1.80;;
76867;SDS011;66168;45.478;11.060;2023-12-22T10:05:39;1.30;;;1.20;;
76867;SDS011;66168;45.478;11.060;2023-12-22T10:08:07;3.20;;;1.50;;
76867;SDS011;66168;45.478;11.060;2023-12-22T10:10:37;5.30;;;1.60;;
76867;SDS011;66168;45.478;11.060;2023-12-22T10:13:06;3.30;;;1.20;;
76867;SDS011;66168;45.478;11.060;2023-12-22T10:15:37;3.60;;;1.50;;
76867;SDS011;66168;45.478;11.060;2023-12-22T10:18:07;1.80;;;1.40;;
76867;SDS011;66168;45.478;11.060;2023-12-22T10:20:35;5.20;;;1.40;;
76867;SDS011;66168;45.478;11.060;2023-12-22T10:23:03;4.00;;;1.60;;
76867;SDS011;66168;45.478;11.060;2023-12-22T10:25:30;3.20;;;1.40;;
76867;SDS011;66168;45.478;11.060;2023-12-22T10:27:58;1.90;;;1.20;;
76867;SDS011;66168;45.478;11.060;2023-12-22T10:30:25;3.30;;;2.90;;
76867;SDS011;66168;45.478;11.060;2023-12-22T10:32:54;5.00;;;3.20;;
76867;SDS011;66168;45.478;11.060;2023-12-22T10:35:21;37.70;;;25.30;;
76867;SDS011;66168;45.478;11.060;2023-12-22T10:37:49;6.80;;;3.70;;
76867;SDS011;66168;45.478;11.060;2023-12-22T10:40:20;4.20;;;2.10;;
76867;SDS011;66168;45.478;11.060;2023-12-22T10:42:49;3.20;;;1.70;;
76867;SDS011;66168;45.478;11.060;2023-12-22T10:45:20;1.60;;;1.10;;
76867;SDS011;66168;45.478;11.060;2023-12-22T10:47:48;1.70;;;0.90;;
76867;SDS011;66168;45.478;11.060;2023-12-22T10:50:20;0.80;;;0.80;;
76867;SDS011;66168;45.478;11.060;2023-12-22T10:52:50;3.70;;;1.20;;
76867;SDS011;66168;45.478;11.060;2023-12-22T10:55:18;1.20;;;0.90;;
76867;SDS011;66168;45.478;11.060;2023-12-22T10:57:46;1.70;;;0.80;;
76867;SDS011;66168;45.478;11.060;2023-12-22T11:00:15;4.30;;;1.50;;
76867;SDS011;66168;45.478;11.060;2023-12-22T11:02:43;1.80;;;1.00;;
76867;SDS011;66168;45.478;11.060;2023-12-22T11:05:15;3.10;;;1.10;;
76867;SDS011;66168;45.478;11.060;2023-12-22T11:07:50;1.20;;;0.90;;
76867;SDS011;66168;45.478;11.060;2023-12-22T11:10:21;3.20;;;0.80;;
76867;SDS011;66168;45.478;11.060;2023-12-22T11:12:49;1.20;;;0.90;;
76867;SDS011;66168;45.478;11.060;2023-12-22T11:15:18;3.70;;;1.20;;
76867;SDS011;66168;45.478;11.060;2023-12-22T11:17:46;2.90;;;1.10;;
76867;SDS011;66168;45.478;11.060;2023-12-22T11:20:16;2.20;;;1.00;;
76867;SDS011;66168;45.478;11.060;2023-12-22T11:22:44;1.20;;;1.10;;
76867;SDS011;66168;45.478;11.060;2023-12-22T11:25:12;1.00;;;0.80;;
76867;SDS011;66168;45.478;11.060;2023-12-22T11:27:43;3.60;;;0.90;;
76867;SDS011;66168;45.478;11.060;2023-12-22T11:30:14;2.20;;;1.40;;
76867;SDS011;66168;45.478;11.060;2023-12-22T11:32:42;1.90;;;0.90;;
76867;SDS011;66168;45.478;11.060;2023-12-22T11:35:11;1.50;;;1.10;;
76867;SDS011;66168;45.478;11.060;2023-12-22T11:37:38;3.90;;;1.40;;
76867;SDS011;66168;45.478;11.060;2023-12-22T11:40:06;1.70;;;1.30;;
76867;SDS011;66168;45.478;11.060;2023-12-22T11:42:35;5.10;;;1.50;;
76867;SDS011;66168;45.478;11.060;2023-12-22T11:45:13;4.70;;;1.00;;
76867;SDS011;66168;45.478;11.060;2023-12-22T11:47:43;5.30;;;1.20;;
76867;SDS011;66168;45.478;11.060;2023-12-22T11:50:10;1.00;;;0.90;;
76867;SDS011;66168;45.478;11.060;2023-12-22T11:52:38;1.40;;;1.30;;
76867;SDS011;66168;45.478;11.060;2023-12-22T11:55:07;5.20;;;1.60;;
76867;SDS011;66168;45.478;11.060;2023-12-22T11:57:35;2.00;;;1.40;;
76867;SDS011;66168;45.478;11.060;2023-12-22T12:00:06;2.30;;;1.50;;
76867;SDS011;66168;45.478;11.060;2023-12-22T12:03:03;4.00;;;1.60;;
76867;SDS011;66168;45.478;11.060;2023-12-22T12:05:33;1.50;;;1.30;;
76867;SDS011;66168;45.478;11.060;2023-12-22T12:08:06;3.70;;;1.20;;
76867;SDS011;66168;45.478;11.060;2023-12-22T12:13:07;1.50;;;1.40;;
76867;SDS011;66168;45.478;11.060;2023-12-22T12:15:36;2.10;;;1.30;;
76867;SDS011;66168;45.478;11.060;2023-12-22T12:18:03;1.50;;;1.40;;
76867;SDS011;66168;45.478;11.060;2023-12-22T12:20:35;2.10;;;1.50;;
76867;SDS011;66168;45.478;11.060;2023-12-22T12:23:02;3.10;;;1.40;;
76867;SDS011;66168;45.478;11.060;2023-12-22T12:25:29;1.70;;;1.10;;
76867;SDS011;66168;45.478;11.060;2023-12-22T12:28:06;1.00;;;1.00;;
76867;SDS011;66168;45.478;11.060;2023-12-22T12:30:37;1.80;;;1.00;;
76867;SDS011;66168;45.478;11.060;2023-12-22T12:33:06;3.60;;;1.20;;
76867;SDS011;66168;45.478;11.060;2023-12-22T12:35:35;2.00;;;1.40;;
76867;SDS011;66168;45.478;11.060;2023-12-22T12:38:08;2.00;;;1.00;;
76867;SDS011;66168;45.478;11.060;2023-12-22T12:40:36;5.10;;;1.30;;
76867;SDS011;66168;45.478;11.060;2023-12-22T12:43:06;1.30;;;1.00;;
76867;SDS011;66168;45.478;11.060;2023-12-22T12:45:33;1.50;;;1.00;;
76867;SDS011;66168;45.478;11.060;2023-12-22T12:48:03;3.90;;;1.10;;
76867;SDS011;66168;45.478;11.060;2023-12-22T12:50:33;2.40;;;1.30;;
76867;SDS011;66168;45.478;11.060;2023-12-22T12:53:01;2.90;;;1.70;;
76867;SDS011;66168;45.478;11.060;2023-12-22T12:55:29;1.50;;;1.20;;
76867;SDS011;66168;45.478;11.060;2023-12-22T12:57:56;1.10;;;0.90;;
76867;SDS011;66168;45.478;11.060;2023-12-22T13:00:30;2.50;;;1.20;;
76867;SDS011;66168;45.478;11.060;2023-12-22T13:03:05;1.90;;;1.30;;
76867;SDS011;66168;45.478;11.060;2023-12-22T13:05:34;4.40;;;1.00;;
76867;SDS011;66168;45.478;11.060;2023-12-22T13:10:37;7.80;;;1.20;;
76867;SDS011;66168;45.478;11.060;2023-12-22T13:13:04;1.20;;;0.80;;
76867;SDS011;66168;45.478;11.060;2023-12-22T13:15:31;1.70;;;1.10;;
76867;SDS011;66168;45.478;11.060;2023-12-22T13:17:59;1.20;;;1.00;;
76867;SDS011;66168;45.478;11.060;2023-12-22T13:20:26;2.20;;;1.50;;
76867;SDS011;66168;45.478;11.060;2023-12-22T13:22:54;2.20;;;1.40;;
76867;SDS011;66168;45.478;11.060;2023-12-22T13:25:22;1.70;;;1.00;;
76867;SDS011;66168;45.478;11.060;2023-12-22T13:27:51;2.50;;;1.10;;
76867;SDS011;66168;45.478;11.060;2023-12-22T13:32:58;1.30;;;1.10;;
76867;SDS011;66168;45.478;11.060;2023-12-22T13:35:26;2.40;;;1.00;;
76867;SDS011;66168;45.478;11.060;2023-12-22T13:37:55;2.30;;;1.40;;
76867;SDS011;66168;45.478;11.060;2023-12-22T13:40:22;3.00;;;0.90;;
76867;SDS011;66168;45.478;11.060;2023-12-22T13:42:56;2.60;;;1.00;;
76867;SDS011;66168;45.478;11.060;2023-12-22T13:45:28;1.30;;;0.70;;
76867;SDS011;66168;45.478;11.060;2023-12-22T13:47:57;1.00;;;0.60;;
76867;SDS011;66168;45.478;11.060;2023-12-22T13:50:25;2.90;;;1.40;;
76867;SDS011;66168;45.478;11.060;2023-12-22T13:52:52;5.10;;;1.10;;
76867;SDS011;66168;45.478;11.060;2023-12-22T13:55:19;1.00;;;0.90;;
76867;SDS011;66168;45.478;11.060;2023-12-22T13:57:58;1.80;;;0.80;;
76867;SDS011;66168;45.478;11.060;2023-12-22T14:00:30;3.90;;;1.20;;
76867;SDS011;66168;45.478;11.060;2023-12-22T14:03:00;2.50;;;1.00;;
76867;SDS011;66168;45.478;11.060;2023-12-22T14:05:27;2.20;;;0.90;;
76867;SDS011;66168;45.478;11.060;2023-12-22T14:08:00;0.70;;;0.60;;
76867;SDS011;66168;45.478;11.060;2023-12-22T14:10:28;0.80;;;0.80;;
76867;SDS011;66168;45.478;11.060;2023-12-22T14:12:55;1.50;;;0.60;;
76867;SDS011;66168;45.478;11.060;2023-12-22T14:15:22;0.60;;;0.60;;
76867;SDS011;66168;45.478;11.060;2023-12-22T14:17:56;0.60;;;0.60;;
76867;SDS011;66168;45.478;11.060;2023-12-22T14:20:23;1.00;;;0.60;;
76867;SDS011;66168;45.478;11.060;2023-12-22T14:22:51;1.60;;;0.80;;
76867;SDS011;66168;45.478;11.060;2023-12-22T14:25:19;1.50;;;0.80;;
76867;SDS011;66168;45.478;11.060;2023-12-22T14:27:46;1.10;;;1.00;;
76867;SDS011;66168;45.478;11.060;2023-12-22T14:30:13;2.20;;;1.20;;
76867;SDS011;66168;45.478;11.060;2023-12-22T14:32:40;2.20;;;1.20;;
76867;SDS011;66168;45.478;11.060;2023-12-22T14:35:07;1.50;;;1.10;;
76867;SDS011;66168;45.478;11.060;2023-12-22T14:37:35;1.00;;;0.90;;
76867;SDS011;66168;45.478;11.060;2023-12-22T14:40:05;0.90;;;0.80;;
76867;SDS011;66168;45.478;11.060;2023-12-22T14:42:32;0.80;;;0.70;;
76867;SDS011;66168;45.478;11.060;2023-12-22T14:44:59;0.60;;;0.60;;
76867;SDS011;66168;45.478;11.060;2023-12-22T14:47:28;0.50;;;0.50;;
76867;SDS011;66168;45.478;11.060;2023-12-22T14:49:57;2.00;;;0.90;;